sensor_id;sensor_type;location;lat;lon;timestamp;P1;durP1;ratioP1;P2;durP2;ratioP2
21330;SDS011;10824;51.632;4.950;2023-02-12T00:01:26;7.30;;;3.80;;
21330;SDS011;10824;51.632;4.950;2023-02-12T00:03:58;6.28;;;3.20;;
21330;SDS011;10824;51.632;4.950;2023-02-12T00:06:25;6.95;;;4.07;;
21330;SDS011;10824;51.632;4.950;2023-02-12T00:08:56;6.65;;;3.80;;
21330;SDS011;10824;51.632;4.950;2023-02-12T00:11:24;5.15;;;3.22;;
21330;SDS011;10824;51.632;4.950;2023-02-12T00:13:53;5.97;;;3.70;;
21330;SDS011;10824;51.632;4.950;2023-02-12T00:16:23;6.00;;;3.13;;
21330;SDS011;10824;51.632;4.950;2023-02-12T00:18:52;6.57;;;3.20;;
21330;SDS011;10824;51.632;4.950;2023-02-12T00:21:22;6.00;;;3.25;;
21330;SDS011;10824;51.632;4.950;2023-02-12T00:23:49;4.70;;;3.50;;
21330;SDS011;10824;51.632;4.950;2023-02-12T00:26:17;4.95;;;2.85;;
21330;SDS011;10824;51.632;4.950;2023-02-12T00:28:47;7.65;;;3.63;;
21330;SDS011;10824;51.632;4.950;2023-02-12T00:31:19;15.35;;;3.60;;
21330;SDS011;10824;51.632;4.950;2023-02-12T00:33:49;8.35;;;3.88;;
21330;SDS011;10824;51.632;4.950;2023-02-12T00:36:17;6.13;;;3.88;;
21330;SDS011;10824;51.632;4.950;2023-02-12T00:38:47;5.60;;;3.22;;
21330;SDS011;10824;51.632;4.950;2023-02-12T00:41:17;7.72;;;3.53;;
21330;SDS011;10824;51.632;4.950;2023-02-12T00:43:44;8.60;;;4.53;;
21330;SDS011;10824;51.632;4.950;2023-02-12T00:46:12;10.48;;;4.03;;
21330;SDS011;10824;51.632;4.950;2023-02-12T00:48:39;6.13;;;3.15;;
21330;SDS011;10824;51.632;4.950;2023-02-12T00:51:07;5.88;;;3.17;;
21330;SDS011;10824;51.632;4.950;2023-02-12T00:53:34;6.93;;;4.13;;
21330;SDS011;10824;51.632;4.950;2023-02-12T00:56:02;9.02;;;3.35;;
21330;SDS011;10824;51.632;4.950;2023-02-12T00:58:30;6.65;;;3.92;;
21330;SDS011;10824;51.632;4.950;2023-02-12T01:00:58;5.57;;;3.00;;
21330;SDS011;10824;51.632;4.950;2023-02-12T01:03:25;5.68;;;2.92;;
21330;SDS011;10824;51.632;4.950;2023-02-12T01:05:52;6.78;;;4.32;;
21330;SDS011;10824;51.632;4.950;2023-02-12T01:08:20;7.07;;;3.70;;
21330;SDS011;10824;51.632;4.950;2023-02-12T01:10:55;6.63;;;3.10;;
21330;SDS011;10824;51.632;4.950;2023-02-12T01:13:27;7.15;;;3.45;;
21330;SDS011;10824;51.632;4.950;2023-02-12T01:16:02;7.55;;;3.75;;
21330;SDS011;10824;51.632;4.950;2023-02-12T01:18:34;6.40;;;3.33;;
21330;SDS011;10824;51.632;4.950;2023-02-12T01:21:11;10.60;;;3.88;;
21330;SDS011;10824;51.632;4.950;2023-02-12T01:23:47;5.38;;;3.17;;
21330;SDS011;10824;51.632;4.950;2023-02-12T01:26:14;7.28;;;3.45;;
21330;SDS011;10824;51.632;4.950;2023-02-12T01:28:44;13.18;;;6.15;;
21330;SDS011;10824;51.632;4.950;2023-02-12T01:31:18;6.50;;;3.85;;
21330;SDS011;10824;51.632;4.950;2023-02-12T01:33:49;9.13;;;3.88;;
21330;SDS011;10824;51.632;4.950;2023-02-12T01:36:19;7.07;;;3.42;;
21330;SDS011;10824;51.632;4.950;2023-02-12T01:38:47;8.20;;;4.05;;
21330;SDS011;10824;51.632;4.950;2023-02-12T01:41:19;8.30;;;3.67;;
21330;SDS011;10824;51.632;4.950;2023-02-12T01:44:08;4.35;;;2.78;;
21330;SDS011;10824;51.632;4.950;2023-02-12T01:46:41;5.05;;;2.60;;
21330;SDS011;10824;51.632;4.950;2023-02-12T01:49:15;6.18;;;3.38;;
21330;SDS011;10824;51.632;4.950;2023-02-12T01:52:29;6.35;;;3.20;;
21330;SDS011;10824;51.632;4.950;2023-02-12T01:55:00;5.38;;;2.95;;
21330;SDS011;10824;51.632;4.950;2023-02-12T01:57:35;7.72;;;3.20;;
21330;SDS011;10824;51.632;4.950;2023-02-12T02:00:10;7.95;;;3.72;;
21330;SDS011;10824;51.632;4.950;2023-02-12T02:02:54;6.10;;;3.72;;
21330;SDS011;10824;51.632;4.950;2023-02-12T02:05:32;4.53;;;3.17;;
21330;SDS011;10824;51.632;4.950;2023-02-12T02:08:08;9.32;;;3.60;;
21330;SDS011;10824;51.632;4.950;2023-02-12T02:10:35;6.60;;;3.63;;
21330;SDS011;10824;51.632;4.950;2023-02-12T02:13:02;6.25;;;3.38;;
21330;SDS011;10824;51.632;4.950;2023-02-12T02:15:50;9.27;;;3.92;;
21330;SDS011;10824;51.632;4.950;2023-02-12T02:18:25;7.78;;;4.10;;
21330;SDS011;10824;51.632;4.950;2023-02-12T02:26:47;7.18;;;3.60;;
21330;SDS011;10824;51.632;4.950;2023-02-12T02:32:22;5.57;;;3.13;;
21330;SDS011;10824;51.632;4.950;2023-02-12T02:35:11;8.13;;;3.80;;
21330;SDS011;10824;51.632;4.950;2023-02-12T02:37:48;7.00;;;3.90;;
21330;SDS011;10824;51.632;4.950;2023-02-12T02:40:53;8.32;;;4.28;;
21330;SDS011;10824;51.632;4.950;2023-02-12T02:43:32;8.07;;;3.85;;
21330;SDS011;10824;51.632;4.950;2023-02-12T02:46:13;9.63;;;4.32;;
21330;SDS011;10824;51.632;4.950;2023-02-12T02:48:51;8.88;;;3.58;;
21330;SDS011;10824;51.632;4.950;2023-02-12T02:51:26;7.47;;;4.45;;
21330;SDS011;10824;51.632;4.950;2023-02-12T02:54:15;9.20;;;4.50;;
21330;SDS011;10824;51.632;4.950;2023-02-12T02:56:54;6.47;;;4.05;;
21330;SDS011;10824;51.632;4.950;2023-02-12T02:59:27;8.63;;;4.13;;
21330;SDS011;10824;51.632;4.950;2023-02-12T03:02:00;6.30;;;3.78;;
21330;SDS011;10824;51.632;4.950;2023-02-12T03:04:43;7.35;;;3.38;;
21330;SDS011;10824;51.632;4.950;2023-02-12T03:07:25;7.15;;;3.88;;
21330;SDS011;10824;51.632;4.950;2023-02-12T03:09:59;10.18;;;3.88;;
21330;SDS011;10824;51.632;4.950;2023-02-12T03:12:37;13.25;;;3.63;;
21330;SDS011;10824;51.632;4.950;2023-02-12T03:17:49;9.65;;;4.63;;
21330;SDS011;10824;51.632;4.950;2023-02-12T03:23:08;6.43;;;3.63;;
21330;SDS011;10824;51.632;4.950;2023-02-12T03:25:40;7.93;;;4.05;;
21330;SDS011;10824;51.632;4.950;2023-02-12T03:28:26;11.32;;;5.28;;
21330;SDS011;10824;51.632;4.950;2023-02-12T03:31:02;10.02;;;5.20;;
21330;SDS011;10824;51.632;4.950;2023-02-12T03:34:12;12.20;;;5.15;;
21330;SDS011;10824;51.632;4.950;2023-02-12T03:36:55;8.13;;;4.43;;
21330;SDS011;10824;51.632;4.950;2023-02-12T03:44:57;5.65;;;3.88;;
21330;SDS011;10824;51.632;4.950;2023-02-12T03:47:38;7.38;;;4.20;;
21330;SDS011;10824;51.632;4.950;2023-02-12T03:52:36;7.72;;;3.88;;
21330;SDS011;10824;51.632;4.950;2023-02-12T03:55:03;9.07;;;4.78;;
21330;SDS011;10824;51.632;4.950;2023-02-12T03:57:32;11.48;;;5.15;;
21330;SDS011;10824;51.632;4.950;2023-02-12T04:00:05;9.38;;;5.32;;
21330;SDS011;10824;51.632;4.950;2023-02-12T04:02:39;10.55;;;3.67;;
21330;SDS011;10824;51.632;4.950;2023-02-12T04:05:14;10.75;;;5.00;;
21330;SDS011;10824;51.632;4.950;2023-02-12T04:07:46;10.18;;;3.67;;
21330;SDS011;10824;51.632;4.950;2023-02-12T04:10:14;10.93;;;4.85;;
21330;SDS011;10824;51.632;4.950;2023-02-12T04:12:53;7.47;;;3.90;;
21330;SDS011;10824;51.632;4.950;2023-02-12T04:15:48;7.80;;;4.15;;
21330;SDS011;10824;51.632;4.950;2023-02-12T04:18:23;9.70;;;4.75;;
21330;SDS011;10824;51.632;4.950;2023-02-12T04:21:02;12.65;;;5.00;;
21330;SDS011;10824;51.632;4.950;2023-02-12T04:31:54;8.32;;;4.75;;
21330;SDS011;10824;51.632;4.950;2023-02-12T04:34:33;10.25;;;4.38;;
21330;SDS011;10824;51.632;4.950;2023-02-12T04:39:58;7.65;;;3.90;;
21330;SDS011;10824;51.632;4.950;2023-02-12T04:42:28;8.00;;;4.88;;
21330;SDS011;10824;51.632;4.950;2023-02-12T04:44:55;10.40;;;4.07;;
21330;SDS011;10824;51.632;4.950;2023-02-12T04:47:22;11.38;;;4.32;;
21330;SDS011;10824;51.632;4.950;2023-02-12T04:49:49;7.18;;;3.88;;
21330;SDS011;10824;51.632;4.950;2023-02-12T04:52:16;9.52;;;5.03;;
21330;SDS011;10824;51.632;4.950;2023-02-12T04:54:43;8.98;;;4.22;;
21330;SDS011;10824;51.632;4.950;2023-02-12T04:57:10;10.05;;;4.70;;
21330;SDS011;10824;51.632;4.950;2023-02-12T04:59:37;7.65;;;4.13;;
21330;SDS011;10824;51.632;4.950;2023-02-12T05:02:04;8.45;;;4.38;;
21330;SDS011;10824;51.632;4.950;2023-02-12T05:04:31;8.70;;;4.55;;
21330;SDS011;10824;51.632;4.950;2023-02-12T05:06:58;8.88;;;4.53;;
21330;SDS011;10824;51.632;4.950;2023-02-12T05:09:25;6.95;;;4.75;;
21330;SDS011;10824;51.632;4.950;2023-02-12T05:11:52;8.30;;;4.95;;
21330;SDS011;10824;51.632;4.950;2023-02-12T05:14:19;9.25;;;5.25;;
21330;SDS011;10824;51.632;4.950;2023-02-12T05:16:50;9.23;;;4.82;;
21330;SDS011;10824;51.632;4.950;2023-02-12T05:19:17;8.40;;;4.43;;
21330;SDS011;10824;51.632;4.950;2023-02-12T05:21:44;10.32;;;4.38;;
21330;SDS011;10824;51.632;4.950;2023-02-12T05:24:11;8.13;;;4.15;;
21330;SDS011;10824;51.632;4.950;2023-02-12T05:26:38;11.27;;;5.05;;
21330;SDS011;10824;51.632;4.950;2023-02-12T05:29:05;10.93;;;5.32;;
21330;SDS011;10824;51.632;4.950;2023-02-12T05:31:32;8.15;;;4.22;;
21330;SDS011;10824;51.632;4.950;2023-02-12T05:33:59;8.82;;;4.80;;
21330;SDS011;10824;51.632;4.950;2023-02-12T05:36:27;8.50;;;4.28;;
21330;SDS011;10824;51.632;4.950;2023-02-12T05:38:56;9.38;;;4.88;;
21330;SDS011;10824;51.632;4.950;2023-02-12T05:41:25;7.18;;;3.47;;
21330;SDS011;10824;51.632;4.950;2023-02-12T05:43:52;7.43;;;4.20;;
21330;SDS011;10824;51.632;4.950;2023-02-12T05:46:20;8.98;;;4.45;;
21330;SDS011;10824;51.632;4.950;2023-02-12T05:48:47;6.53;;;4.25;;
21330;SDS011;10824;51.632;4.950;2023-02-12T05:51:16;7.75;;;3.95;;
21330;SDS011;10824;51.632;4.950;2023-02-12T05:56:16;10.10;;;4.13;;
21330;SDS011;10824;51.632;4.950;2023-02-12T05:58:45;8.93;;;4.82;;
21330;SDS011;10824;51.632;4.950;2023-02-12T06:01:18;7.22;;;4.45;;
21330;SDS011;10824;51.632;4.950;2023-02-12T06:03:48;10.65;;;4.82;;
21330;SDS011;10824;51.632;4.950;2023-02-12T06:06:15;9.50;;;5.10;;
21330;SDS011;10824;51.632;4.950;2023-02-12T06:08:42;7.35;;;4.25;;
21330;SDS011;10824;51.632;4.950;2023-02-12T06:11:10;11.23;;;5.03;;
21330;SDS011;10824;51.632;4.950;2023-02-12T06:13:42;8.52;;;4.22;;
21330;SDS011;10824;51.632;4.950;2023-02-12T06:16:22;8.05;;;3.85;;
21330;SDS011;10824;51.632;4.950;2023-02-12T06:18:54;12.98;;;4.75;;
21330;SDS011;10824;51.632;4.950;2023-02-12T06:21:24;7.38;;;3.83;;
21330;SDS011;10824;51.632;4.950;2023-02-12T06:23:52;7.43;;;4.53;;
21330;SDS011;10824;51.632;4.950;2023-02-12T06:26:19;7.55;;;4.63;;
21330;SDS011;10824;51.632;4.950;2023-02-12T06:28:47;8.02;;;4.28;;
21330;SDS011;10824;51.632;4.950;2023-02-12T06:33:54;7.90;;;4.28;;
21330;SDS011;10824;51.632;4.950;2023-02-12T06:36:22;7.57;;;4.13;;
21330;SDS011;10824;51.632;4.950;2023-02-12T06:38:50;11.32;;;6.03;;
21330;SDS011;10824;51.632;4.950;2023-02-12T06:41:17;8.60;;;4.30;;
21330;SDS011;10824;51.632;4.950;2023-02-12T06:43:45;9.82;;;3.92;;
21330;SDS011;10824;51.632;4.950;2023-02-12T06:46:13;8.20;;;4.57;;
21330;SDS011;10824;51.632;4.950;2023-02-12T06:48:41;12.20;;;4.88;;
21330;SDS011;10824;51.632;4.950;2023-02-12T06:51:09;6.93;;;3.40;;
21330;SDS011;10824;51.632;4.950;2023-02-12T06:53:40;7.00;;;4.25;;
21330;SDS011;10824;51.632;4.950;2023-02-12T06:56:09;7.18;;;4.50;;
21330;SDS011;10824;51.632;4.950;2023-02-12T06:58:42;9.23;;;4.72;;
21330;SDS011;10824;51.632;4.950;2023-02-12T07:01:12;6.53;;;3.92;;
21330;SDS011;10824;51.632;4.950;2023-02-12T07:03:48;8.65;;;4.43;;
21330;SDS011;10824;51.632;4.950;2023-02-12T07:06:21;9.27;;;4.22;;
21330;SDS011;10824;51.632;4.950;2023-02-12T07:08:49;9.65;;;4.47;;
21330;SDS011;10824;51.632;4.950;2023-02-12T07:11:26;10.02;;;4.05;;
21330;SDS011;10824;51.632;4.950;2023-02-12T07:13:56;9.23;;;3.92;;
21330;SDS011;10824;51.632;4.950;2023-02-12T07:16:25;9.35;;;4.72;;
21330;SDS011;10824;51.632;4.950;2023-02-12T07:18:53;10.43;;;4.70;;
21330;SDS011;10824;51.632;4.950;2023-02-12T07:21:20;9.93;;;4.75;;
21330;SDS011;10824;51.632;4.950;2023-02-12T07:23:51;7.25;;;4.15;;
21330;SDS011;10824;51.632;4.950;2023-02-12T07:26:19;8.40;;;3.80;;
21330;SDS011;10824;51.632;4.950;2023-02-12T07:28:47;11.00;;;4.03;;
21330;SDS011;10824;51.632;4.950;2023-02-12T07:31:16;7.93;;;4.03;;
21330;SDS011;10824;51.632;4.950;2023-02-12T07:33:46;8.80;;;4.05;;
21330;SDS011;10824;51.632;4.950;2023-02-12T07:36:24;7.45;;;4.25;;
21330;SDS011;10824;51.632;4.950;2023-02-12T07:41:24;6.88;;;4.20;;
21330;SDS011;10824;51.632;4.950;2023-02-12T07:44:00;8.13;;;4.70;;
21330;SDS011;10824;51.632;4.950;2023-02-12T07:46:33;11.00;;;5.60;;
21330;SDS011;10824;51.632;4.950;2023-02-12T07:49:04;9.07;;;4.18;;
21330;SDS011;10824;51.632;4.950;2023-02-12T07:51:42;8.60;;;3.92;;
21330;SDS011;10824;51.632;4.950;2023-02-12T07:54:16;7.32;;;4.22;;
21330;SDS011;10824;51.632;4.950;2023-02-12T07:56:47;6.20;;;3.55;;
21330;SDS011;10824;51.632;4.950;2023-02-12T07:59:17;10.40;;;3.83;;
21330;SDS011;10824;51.632;4.950;2023-02-12T08:01:48;8.88;;;4.65;;
21330;SDS011;10824;51.632;4.950;2023-02-12T08:04:28;10.45;;;4.15;;
21330;SDS011;10824;51.632;4.950;2023-02-12T08:06:55;11.13;;;4.88;;
21330;SDS011;10824;51.632;4.950;2023-02-12T08:09:27;10.30;;;4.53;;
21330;SDS011;10824;51.632;4.950;2023-02-12T08:11:56;9.77;;;4.45;;
21330;SDS011;10824;51.632;4.950;2023-02-12T08:14:25;7.05;;;4.22;;
21330;SDS011;10824;51.632;4.950;2023-02-12T08:16:55;6.25;;;3.63;;
21330;SDS011;10824;51.632;4.950;2023-02-12T08:19:23;10.57;;;4.43;;
21330;SDS011;10824;51.632;4.950;2023-02-12T08:21:57;7.85;;;4.15;;
21330;SDS011;10824;51.632;4.950;2023-02-12T08:24:25;7.93;;;3.72;;
21330;SDS011;10824;51.632;4.950;2023-02-12T08:26:57;5.88;;;3.50;;
21330;SDS011;10824;51.632;4.950;2023-02-12T08:29:26;11.15;;;5.03;;
21330;SDS011;10824;51.632;4.950;2023-02-12T08:32:04;13.50;;;5.20;;
21330;SDS011;10824;51.632;4.950;2023-02-12T08:34:36;9.07;;;4.13;;
21330;SDS011;10824;51.632;4.950;2023-02-12T08:37:03;7.43;;;4.10;;
21330;SDS011;10824;51.632;4.950;2023-02-12T08:39:32;9.30;;;3.70;;
21330;SDS011;10824;51.632;4.950;2023-02-12T08:42:00;9.45;;;3.80;;
21330;SDS011;10824;51.632;4.950;2023-02-12T08:44:27;5.70;;;3.05;;
21330;SDS011;10824;51.632;4.950;2023-02-12T08:46:56;7.57;;;4.13;;
21330;SDS011;10824;51.632;4.950;2023-02-12T08:49:28;10.02;;;4.47;;
21330;SDS011;10824;51.632;4.950;2023-02-12T08:51:57;7.45;;;3.47;;
21330;SDS011;10824;51.632;4.950;2023-02-12T08:54:25;5.95;;;2.80;;
21330;SDS011;10824;51.632;4.950;2023-02-12T08:56:58;6.57;;;4.15;;
21330;SDS011;10824;51.632;4.950;2023-02-12T09:02:21;6.88;;;3.40;;
21330;SDS011;10824;51.632;4.950;2023-02-12T09:05:03;7.07;;;3.47;;
21330;SDS011;10824;51.632;4.950;2023-02-12T09:07:30;7.18;;;3.75;;
21330;SDS011;10824;51.632;4.950;2023-02-12T09:09:57;8.65;;;5.18;;
21330;SDS011;10824;51.632;4.950;2023-02-12T09:12:24;5.80;;;3.83;;
21330;SDS011;10824;51.632;4.950;2023-02-12T09:14:54;7.82;;;3.92;;
21330;SDS011;10824;51.632;4.950;2023-02-12T09:17:21;11.30;;;5.10;;
21330;SDS011;10824;51.632;4.950;2023-02-12T09:19:53;9.18;;;4.35;;
21330;SDS011;10824;51.632;4.950;2023-02-12T09:22:23;7.63;;;3.22;;
21330;SDS011;10824;51.632;4.950;2023-02-12T09:24:50;10.70;;;3.90;;
21330;SDS011;10824;51.632;4.950;2023-02-12T09:27:18;8.45;;;3.50;;
21330;SDS011;10824;51.632;4.950;2023-02-12T09:29:45;8.60;;;3.90;;
21330;SDS011;10824;51.632;4.950;2023-02-12T09:32:14;6.80;;;3.75;;
21330;SDS011;10824;51.632;4.950;2023-02-12T09:34:44;12.88;;;4.95;;
21330;SDS011;10824;51.632;4.950;2023-02-12T09:37:12;8.10;;;4.68;;
21330;SDS011;10824;51.632;4.950;2023-02-12T09:39:42;7.93;;;3.75;;
21330;SDS011;10824;51.632;4.950;2023-02-12T09:45:19;6.35;;;3.08;;
21330;SDS011;10824;51.632;4.950;2023-02-12T09:50:31;6.65;;;3.30;;
21330;SDS011;10824;51.632;4.950;2023-02-12T09:53:09;6.55;;;3.72;;
21330;SDS011;10824;51.632;4.950;2023-02-12T09:55:42;7.13;;;3.75;;
21330;SDS011;10824;51.632;4.950;2023-02-12T10:01:14;7.32;;;3.53;;
21330;SDS011;10824;51.632;4.950;2023-02-12T10:03:49;7.20;;;3.67;;
21330;SDS011;10824;51.632;4.950;2023-02-12T10:06:19;5.40;;;3.40;;
21330;SDS011;10824;51.632;4.950;2023-02-12T10:11:28;15.30;;;4.80;;
21330;SDS011;10824;51.632;4.950;2023-02-12T10:26:09;5.95;;;3.08;;
21330;SDS011;10824;51.632;4.950;2023-02-12T10:28:58;9.27;;;4.10;;
21330;SDS011;10824;51.632;4.950;2023-02-12T10:31:37;7.85;;;4.32;;
21330;SDS011;10824;51.632;4.950;2023-02-12T10:34:31;7.05;;;3.67;;
21330;SDS011;10824;51.632;4.950;2023-02-12T10:37:11;7.53;;;3.17;;
21330;SDS011;10824;51.632;4.950;2023-02-12T10:42:58;7.07;;;3.50;;
21330;SDS011;10824;51.632;4.950;2023-02-12T10:45:43;9.20;;;3.85;;
21330;SDS011;10824;51.632;4.950;2023-02-12T10:48:30;5.90;;;3.13;;
21330;SDS011;10824;51.632;4.950;2023-02-12T10:53:42;7.40;;;3.83;;
21330;SDS011;10824;51.632;4.950;2023-02-12T10:56:13;11.52;;;4.50;;
21330;SDS011;10824;51.632;4.950;2023-02-12T11:01:19;7.22;;;4.20;;
21330;SDS011;10824;51.632;4.950;2023-02-12T11:04:22;10.32;;;3.60;;
21330;SDS011;10824;51.632;4.950;2023-02-12T11:06:56;8.18;;;3.88;;
21330;SDS011;10824;51.632;4.950;2023-02-12T11:09:41;7.38;;;4.13;;
21330;SDS011;10824;51.632;4.950;2023-02-12T11:12:46;7.55;;;3.95;;
21330;SDS011;10824;51.632;4.950;2023-02-12T11:15:17;8.90;;;3.38;;
21330;SDS011;10824;51.632;4.950;2023-02-12T11:28:52;9.52;;;5.20;;
21330;SDS011;10824;51.632;4.950;2023-02-12T11:31:29;9.27;;;4.38;;
21330;SDS011;10824;51.632;4.950;2023-02-12T11:36:47;11.10;;;5.93;;
21330;SDS011;10824;51.632;4.950;2023-02-12T11:42:18;14.73;;;5.97;;
21330;SDS011;10824;51.632;4.950;2023-02-12T11:44:53;13.43;;;6.15;;
21330;SDS011;10824;51.632;4.950;2023-02-12T11:47:32;12.50;;;5.28;;
21330;SDS011;10824;51.632;4.950;2023-02-12T11:50:07;15.93;;;5.40;;
21330;SDS011;10824;51.632;4.950;2023-02-12T11:52:46;12.77;;;6.00;;
21330;SDS011;10824;51.632;4.950;2023-02-12T11:55:25;13.73;;;6.05;;
21330;SDS011;10824;51.632;4.950;2023-02-12T11:58:15;15.57;;;6.60;;
21330;SDS011;10824;51.632;4.950;2023-02-12T12:06:15;10.80;;;5.63;;
21330;SDS011;10824;51.632;4.950;2023-02-12T12:08:48;13.95;;;6.72;;
21330;SDS011;10824;51.632;4.950;2023-02-12T12:17:24;12.45;;;6.13;;
21330;SDS011;10824;51.632;4.950;2023-02-12T12:20:26;14.67;;;6.07;;
21330;SDS011;10824;51.632;4.950;2023-02-12T12:23:33;10.30;;;5.65;;
21330;SDS011;10824;51.632;4.950;2023-02-12T12:25:57;13.95;;;5.15;;
21330;SDS011;10824;51.632;4.950;2023-02-12T12:28:40;12.05;;;5.88;;
21330;SDS011;10824;51.632;4.950;2023-02-12T12:31:38;13.65;;;5.90;;
21330;SDS011;10824;51.632;4.950;2023-02-12T12:56:42;11.88;;;6.15;;
21330;SDS011;10824;51.632;4.950;2023-02-12T13:10:40;19.35;;;6.82;;
21330;SDS011;10824;51.632;4.950;2023-02-12T13:18:37;16.52;;;7.05;;
21330;SDS011;10824;51.632;4.950;2023-02-12T13:23:46;14.20;;;6.25;;
21330;SDS011;10824;51.632;4.950;2023-02-12T13:26:23;13.73;;;5.18;;
21330;SDS011;10824;51.632;4.950;2023-02-12T13:31:54;13.52;;;6.47;;
21330;SDS011;10824;51.632;4.950;2023-02-12T13:34:29;16.95;;;6.75;;
21330;SDS011;10824;51.632;4.950;2023-02-12T13:36:59;12.40;;;5.68;;
21330;SDS011;10824;51.632;4.950;2023-02-12T13:39:36;14.20;;;5.97;;
21330;SDS011;10824;51.632;4.950;2023-02-12T13:42:13;13.88;;;6.70;;
21330;SDS011;10824;51.632;4.950;2023-02-12T13:48:04;14.82;;;5.63;;
21330;SDS011;10824;51.632;4.950;2023-02-12T13:51:00;13.23;;;5.85;;
21330;SDS011;10824;51.632;4.950;2023-02-12T13:59:03;15.63;;;6.25;;
21330;SDS011;10824;51.632;4.950;2023-02-12T14:01:56;11.38;;;6.18;;
21330;SDS011;10824;51.632;4.950;2023-02-12T14:04:54;13.93;;;6.20;;
21330;SDS011;10824;51.632;4.950;2023-02-12T14:07:43;15.13;;;6.63;;
21330;SDS011;10824;51.632;4.950;2023-02-12T14:10:39;17.20;;;6.65;;
21330;SDS011;10824;51.632;4.950;2023-02-12T14:13:31;14.70;;;7.80;;
21330;SDS011;10824;51.632;4.950;2023-02-12T14:22:01;14.50;;;6.15;;
21330;SDS011;10824;51.632;4.950;2023-02-12T14:40:46;18.95;;;8.38;;
21330;SDS011;10824;51.632;4.950;2023-02-12T14:43:37;17.55;;;5.85;;
21330;SDS011;10824;51.632;4.950;2023-02-12T14:50:18;16.33;;;6.50;;
21330;SDS011;10824;51.632;4.950;2023-02-12T14:53:55;12.93;;;6.15;;
21330;SDS011;10824;51.632;4.950;2023-02-12T14:56:05;14.98;;;5.88;;
21330;SDS011;10824;51.632;4.950;2023-02-12T14:58:45;18.50;;;7.47;;
21330;SDS011;10824;51.632;4.950;2023-02-12T15:03:45;20.40;;;6.85;;
21330;SDS011;10824;51.632;4.950;2023-02-12T15:06:32;13.57;;;6.22;;
21330;SDS011;10824;51.632;4.950;2023-02-12T15:09:10;16.30;;;7.13;;
21330;SDS011;10824;51.632;4.950;2023-02-12T15:11:47;15.73;;;6.78;;
21330;SDS011;10824;51.632;4.950;2023-02-12T15:14:23;16.27;;;6.93;;
21330;SDS011;10824;51.632;4.950;2023-02-12T15:16:58;13.05;;;5.50;;
21330;SDS011;10824;51.632;4.950;2023-02-12T15:22:53;16.98;;;7.22;;
21330;SDS011;10824;51.632;4.950;2023-02-12T15:25:27;15.60;;;6.95;;
21330;SDS011;10824;51.632;4.950;2023-02-12T15:28:04;18.27;;;7.20;;
21330;SDS011;10824;51.632;4.950;2023-02-12T15:30:52;15.20;;;6.28;;
21330;SDS011;10824;51.632;4.950;2023-02-12T15:33:26;15.45;;;7.68;;
21330;SDS011;10824;51.632;4.950;2023-02-12T15:35:59;15.38;;;6.75;;
21330;SDS011;10824;51.632;4.950;2023-02-12T15:38:35;14.45;;;6.15;;
21330;SDS011;10824;51.632;4.950;2023-02-12T15:41:07;17.15;;;6.97;;
21330;SDS011;10824;51.632;4.950;2023-02-12T15:43:50;13.27;;;6.38;;
21330;SDS011;10824;51.632;4.950;2023-02-12T15:49:42;14.43;;;6.95;;
21330;SDS011;10824;51.632;4.950;2023-02-12T15:52:18;22.23;;;8.48;;
21330;SDS011;10824;51.632;4.950;2023-02-12T15:54:50;22.38;;;10.02;;
21330;SDS011;10824;51.632;4.950;2023-02-12T15:57:22;16.95;;;6.90;;
21330;SDS011;10824;51.632;4.950;2023-02-12T16:06:58;18.05;;;8.70;;
21330;SDS011;10824;51.632;4.950;2023-02-12T16:09:46;16.13;;;7.72;;
21330;SDS011;10824;51.632;4.950;2023-02-12T16:13:03;12.35;;;7.00;;
21330;SDS011;10824;51.632;4.950;2023-02-12T16:15:33;16.27;;;7.00;;
21330;SDS011;10824;51.632;4.950;2023-02-12T16:18:23;17.38;;;7.38;;
21330;SDS011;10824;51.632;4.950;2023-02-12T16:21:54;19.20;;;7.55;;
21330;SDS011;10824;51.632;4.950;2023-02-12T16:24:23;21.00;;;9.57;;
21330;SDS011;10824;51.632;4.950;2023-02-12T16:27:32;18.13;;;7.75;;
21330;SDS011;10824;51.632;4.950;2023-02-12T16:30:29;17.30;;;7.07;;
21330;SDS011;10824;51.632;4.950;2023-02-12T16:32:57;19.35;;;7.25;;
21330;SDS011;10824;51.632;4.950;2023-02-12T16:35:33;16.70;;;7.95;;
21330;SDS011;10824;51.632;4.950;2023-02-12T16:38:36;15.57;;;8.18;;
21330;SDS011;10824;51.632;4.950;2023-02-12T16:46:32;16.90;;;7.40;;
21330;SDS011;10824;51.632;4.950;2023-02-12T16:49:12;18.98;;;7.50;;
21330;SDS011;10824;51.632;4.950;2023-02-12T16:51:45;14.77;;;6.32;;
21330;SDS011;10824;51.632;4.950;2023-02-12T16:54:29;16.33;;;7.93;;
21330;SDS011;10824;51.632;4.950;2023-02-12T16:57:00;17.88;;;7.68;;
21330;SDS011;10824;51.632;4.950;2023-02-12T16:59:27;15.88;;;7.68;;
21330;SDS011;10824;51.632;4.950;2023-02-12T17:01:56;31.90;;;13.13;;
21330;SDS011;10824;51.632;4.950;2023-02-12T17:04:29;33.17;;;12.23;;
21330;SDS011;10824;51.632;4.950;2023-02-12T17:06:56;41.17;;;17.67;;
21330;SDS011;10824;51.632;4.950;2023-02-12T17:09:23;31.65;;;12.90;;
21330;SDS011;10824;51.632;4.950;2023-02-12T17:11:50;25.40;;;10.90;;
21330;SDS011;10824;51.632;4.950;2023-02-12T17:14:18;22.10;;;9.48;;
21330;SDS011;10824;51.632;4.950;2023-02-12T17:16:46;20.42;;;8.13;;
21330;SDS011;10824;51.632;4.950;2023-02-12T17:19:23;17.70;;;8.77;;
21330;SDS011;10824;51.632;4.950;2023-02-12T17:21:56;16.73;;;8.05;;
21330;SDS011;10824;51.632;4.950;2023-02-12T17:24:24;18.27;;;8.23;;
21330;SDS011;10824;51.632;4.950;2023-02-12T17:26:56;20.55;;;9.40;;
21330;SDS011;10824;51.632;4.950;2023-02-12T17:29:24;17.17;;;8.25;;
21330;SDS011;10824;51.632;4.950;2023-02-12T17:31:52;16.38;;;7.80;;
21330;SDS011;10824;51.632;4.950;2023-02-12T17:34:21;17.70;;;8.10;;
21330;SDS011;10824;51.632;4.950;2023-02-12T17:36:56;26.35;;;11.60;;
21330;SDS011;10824;51.632;4.950;2023-02-12T17:39:25;25.02;;;11.95;;
21330;SDS011;10824;51.632;4.950;2023-02-12T17:41:52;24.92;;;11.43;;
21330;SDS011;10824;51.632;4.950;2023-02-12T17:44:19;20.80;;;9.32;;
21330;SDS011;10824;51.632;4.950;2023-02-12T17:46:48;19.05;;;8.38;;
21330;SDS011;10824;51.632;4.950;2023-02-12T17:49:15;18.33;;;8.45;;
21330;SDS011;10824;51.632;4.950;2023-02-12T17:51:42;19.00;;;9.23;;
21330;SDS011;10824;51.632;4.950;2023-02-12T17:54:09;19.13;;;8.88;;
21330;SDS011;10824;51.632;4.950;2023-02-12T17:56:36;25.98;;;7.88;;
21330;SDS011;10824;51.632;4.950;2023-02-12T17:59:03;17.63;;;8.10;;
21330;SDS011;10824;51.632;4.950;2023-02-12T18:01:30;17.60;;;8.23;;
21330;SDS011;10824;51.632;4.950;2023-02-12T18:04:00;21.30;;;8.52;;
21330;SDS011;10824;51.632;4.950;2023-02-12T18:06:27;19.38;;;10.07;;
21330;SDS011;10824;51.632;4.950;2023-02-12T18:08:56;16.23;;;7.57;;
21330;SDS011;10824;51.632;4.950;2023-02-12T18:11:26;20.67;;;9.07;;
21330;SDS011;10824;51.632;4.950;2023-02-12T18:13:55;17.02;;;8.90;;
21330;SDS011;10824;51.632;4.950;2023-02-12T18:16:24;16.75;;;8.70;;
21330;SDS011;10824;51.632;4.950;2023-02-12T18:18:53;15.93;;;7.57;;
21330;SDS011;10824;51.632;4.950;2023-02-12T18:21:22;17.48;;;7.78;;
21330;SDS011;10824;51.632;4.950;2023-02-12T18:23:51;17.02;;;7.90;;
21330;SDS011;10824;51.632;4.950;2023-02-12T18:26:19;17.88;;;7.95;;
21330;SDS011;10824;51.632;4.950;2023-02-12T18:28:46;16.92;;;7.50;;
21330;SDS011;10824;51.632;4.950;2023-02-12T18:31:14;18.70;;;8.00;;
21330;SDS011;10824;51.632;4.950;2023-02-12T18:33:43;27.23;;;9.70;;
21330;SDS011;10824;51.632;4.950;2023-02-12T18:36:12;20.15;;;9.13;;
21330;SDS011;10824;51.632;4.950;2023-02-12T18:38:44;18.23;;;9.07;;
21330;SDS011;10824;51.632;4.950;2023-02-12T18:41:21;22.65;;;8.63;;
21330;SDS011;10824;51.632;4.950;2023-02-12T18:43:50;15.30;;;7.93;;
21330;SDS011;10824;51.632;4.950;2023-02-12T18:46:19;16.48;;;7.68;;